Aérodrome :
LOGIN :

S'inscrire | Disclaimer

   EN    FR    IT 

 










Légende :    VFR   VFR Marginal   IFR   IFR Intensif   IFR Très Intensif
Visi : 
Plafond : 
>= 8 km
>= 3000ft
5 à 8 km
1000 à 3000 ft
1500m à 5 km
500 à 1000 ft
800 à 1500m
200 à 500 ft
< 800m
< 200 ft
Symboles :   Orages  Brouillard  Fortes neiges  Fortes précipitations  Vent > 20 kt
SIGMETs :   Divers  Orages  Givrage  Turbulence  Onde Orograph.  Cendres Volcan.






- Altitude de l'aérodrome : 336 ft
- Code IATA : GCI


EGJB - Guernsey

DERNIER METAR :
  • 221120Z 23008KT 190V250 9999 FEW016 15/11 Q1023

METARs EXPIRÉS :
  • 221050Z 20007KT 160V230 9999 FEW018 15/10 Q1024
  • 221020Z 17005KT 9999 FEW020 15/10 Q1024
  • 220950Z VRB03KT 9999 FEW020 15/09 Q1024
  • 220920Z VRB03KT 9999 FEW020 15/09 Q1024
  • 220850Z 17004KT 9999 FEW018 14/10 Q1024

TAF TAF EGJB
Valide du 22 à 12h jusqu'au 22 à 21h UTC


221101Z 2212/2221 VRB05KT 9999 FEW015
ATIS : +44 1481 238 957



MET'MAP, la Météo Aéronautique d'un coup d'oeil ! - Copyright ORBIFLY Décembre 2007 - Disclaimer

ORBIFLY MET'MAP TEAM :

Programmation & Développement : Alexandra Zaïnal
Conception & Développement : Baudouin d'Aumeries
Co-Programmation & Développement : Marc-Olivier Méhu
Soutien technique & logistique : Manuel Goepfert

Contact : metmap@orbifly.com




SOURCES & CREDITS :

   NOAA